Time,TemperatureF,DewpointF,PressureIn,WindDirection,WindDirectionDegrees,WindSpeedMPH,WindSpeedGustMPH,Humidity,HourlyPrecipIn,Conditions,Clouds,dailyrainin,SoftwareType,DateUTC
2013-06-17 00:02:00,64.0,61.0,29.88,NW,320,0.0,0.0,91,0.00,,,0.01,,2013-06-17 04:02:00,
2013-06-17 00:12:00,64.0,61.0,29.88,NW,320,0.0,0.0,91,0.00,,,0.01,,2013-06-17 04:12:00,
2013-06-17 00:22:00,64.0,61.0,29.89,NW,320,0.0,0.0,91,0.00,,,0.01,,2013-06-17 04:22:00,
2013-06-17 00:34:00,64.0,62.0,29.90,NW,320,0.0,0.0,92,0.00,,,0.01,,2013-06-17 04:34:00,
2013-06-17 00:43:00,64.0,62.0,29.90,NW,320,0.0,0.0,92,0.00,,,0.01,,2013-06-17 04:43:00,
2013-06-17 00:53:00,64.0,62.0,29.89,NW,320,0.0,0.0,92,0.00,,,0.01,,2013-06-17 04:53:00,
2013-06-17 01:02:00,64.0,62.0,29.90,NW,320,0.0,0.0,92,0.00,,,0.01,,2013-06-17 05:02:00,
2013-06-17 01:12:00,64.0,62.0,29.90,NW,320,0.0,0.0,92,0.00,,,0.01,,2013-06-17 05:12:00,
2013-06-17 01:22:00,64.0,62.0,29.90,NW,320,0.0,0.0,92,0.00,,,0.01,,2013-06-17 05:22:00,
2013-06-17 01:33:00,64.0,62.0,29.89,NW,320,0.0,0.0,92,0.00,,,0.01,,2013-06-17 05:33:00,
2013-06-17 01:44:00,63.0,61.0,29.89,NW,320,0.0,0.0,92,0.00,,,0.01,,2013-06-17 05:44:00,
2013-06-17 01:53:00,63.0,61.0,29.88,NW,320,0.0,0.0,92,0.00,,,0.01,,2013-06-17 05:53:00,
2013-06-17 02:02:00,63.0,61.0,29.88,NW,320,0.0,0.0,92,0.00,,,0.01,,2013-06-17 06:02:00,
2013-06-17 02:12:00,63.0,61.0,29.88,NW,320,0.0,0.0,93,0.00,,,0.01,,2013-06-17 06:12:00,
2013-06-17 02:22:00,63.0,61.0,29.88,NW,320,0.0,0.0,93,0.00,,,0.01,,2013-06-17 06:22:00,
2013-06-17 02:33:00,63.0,61.0,29.88,NW,320,0.0,0.0,94,0.00,,,0.01,,2013-06-17 06:33:00,
2013-06-17 02:43:00,63.0,61.0,29.88,NW,320,0.0,0.0,94,0.00,,,0.01,,2013-06-17 06:43:00,
2013-06-17 02:53:00,63.0,61.0,29.89,NW,320,0.0,0.0,94,0.00,,,0.01,,2013-06-17 06:53:00,
2013-06-17 03:02:00,64.0,63.0,29.88,NW,320,0.0,0.0,95,0.00,,,0.01,,2013-06-17 07:02:00,
2013-06-17 03:12:00,64.0,63.0,29.88,NW,320,0.0,0.0,95,0.00,,,0.01,,2013-06-17 07:12:00,
2013-06-17 03:22:00,64.0,63.0,29.88,NW,320,0.0,0.0,96,0.00,,,0.01,,2013-06-17 07:22:00,
2013-06-17 03:33:00,64.0,63.0,29.88,NW,320,0.0,0.0,96,0.00,,,0.01,,2013-06-17 07:33:00,
2013-06-17 03:43:00,65.0,64.0,29.89,NW,320,0.0,0.0,96,0.00,,,0.01,,2013-06-17 07:43:00,
2013-06-17 03:53:00,65.0,64.0,29.88,NW,320,0.0,1.0,97,0.00,,,0.01,,2013-06-17 07:53:00,
2013-06-17 04:02:00,65.0,64.0,29.88,NW,320,0.0,0.0,97,0.00,,,0.01,,2013-06-17 08:02:00,
2013-06-17 04:12:00,66.0,65.0,29.88,NW,320,0.0,1.0,97,0.00,,,0.01,,2013-06-17 08:12:00,
2013-06-17 04:22:00,66.0,65.0,29.87,NW,320,0.0,2.0,97,0.00,,,0.01,,2013-06-17 08:22:00,
2013-06-17 04:34:00,66.0,65.0,29.87,NW,320,0.0,0.0,97,0.00,,,0.01,,2013-06-17 08:34:00,
2013-06-17 04:43:00,66.0,65.0,29.87,NW,320,0.0,0.0,96,0.00,,,0.01,,2013-06-17 08:43:00,
2013-06-17 04:53:00,65.0,64.0,29.87,NW,320,0.0,0.0,97,0.00,,,0.01,,2013-06-17 08:53:00,
2013-06-17 05:02:00,65.0,64.0,29.88,NW,320,0.0,0.0,97,0.00,,,0.01,,2013-06-17 09:02:00,
2013-06-17 05:12:00,65.0,64.0,29.88,NW,320,0.0,0.0,97,0.00,,,0.01,,2013-06-17 09:12:00,
2013-06-17 05:22:00,65.0,64.0,29.88,NW,320,0.0,0.0,98,0.00,,,0.01,,2013-06-17 09:22:00,
2013-06-17 05:34:00,65.0,64.0,29.88,NW,320,0.0,0.0,97,0.00,,,0.01,,2013-06-17 09:34:00,
2013-06-17 05:43:00,65.0,64.0,29.88,NW,320,0.0,0.0,97,0.00,,,0.01,,2013-06-17 09:43:00,
2013-06-17 05:52:00,64.0,63.0,29.88,NW,320,0.0,0.0,98,0.00,,,0.01,,2013-06-17 09:52:00,
2013-06-17 06:02:00,64.0,63.0,29.89,NW,320,0.0,0.0,98,0.00,,,0.01,,2013-06-17 10:02:00,
2013-06-17 06:12:00,64.0,63.0,29.89,NW,320,0.0,0.0,98,0.00,,,0.01,,2013-06-17 10:12:00,
2013-06-17 06:22:00,64.0,63.0,29.89,NW,320,0.0,0.0,98,0.00,,,0.01,,2013-06-17 10:22:00,
2013-06-17 06:33:00,63.0,62.0,29.89,NW,320,0.0,0.0,98,0.00,,,0.01,,2013-06-17 10:33:00,
2013-06-17 06:43:00,63.0,62.0,29.89,NW,320,0.0,0.0,98,0.00,,,0.01,,2013-06-17 10:43:00,
2013-06-17 06:53:00,63.0,62.0,29.89,NW,320,0.0,0.0,98,0.00,,,0.01,,2013-06-17 10:53:00,
2013-06-17 07:02:00,63.0,62.0,29.89,NW,320,0.0,0.0,98,0.00,,,0.01,,2013-06-17 11:02:00,
2013-06-17 07:12:00,62.0,61.0,29.89,NW,320,0.0,0.0,98,0.00,,,0.01,,2013-06-17 11:12:00,
2013-06-17 07:23:00,62.0,61.0,29.89,NW,320,0.0,0.0,98,0.00,,,0.01,,2013-06-17 11:23:00,
2013-06-17 07:33:00,63.0,63.0,29.89,NW,320,0.0,0.0,99,0.00,,,0.01,,2013-06-17 11:33:00,
2013-06-17 07:43:00,64.0,64.0,29.89,NW,320,0.0,0.0,99,0.00,,,0.01,,2013-06-17 11:43:00,
2013-06-17 07:53:00,66.0,66.0,29.89,NW,320,0.0,0.0,99,0.00,,,0.01,,2013-06-17 11:53:00,
2013-06-17 08:02:00,67.0,67.0,29.89,NW,320,0.0,0.0,99,0.00,,,0.01,,2013-06-17 12:02:00,
2013-06-17 08:12:00,67.0,66.0,29.89,NW,320,0.0,1.0,98,0.00,,,0.00,,2013-06-17 12:12:00,
2013-06-17 08:23:00,67.0,66.0,29.90,NW,320,0.0,2.0,97,0.00,,,0.00,,2013-06-17 12:23:00,
2013-06-17 08:33:00,68.0,67.0,29.91,NW,320,0.0,4.0,96,0.00,,,0.00,,2013-06-17 12:33:00,
2013-06-17 08:43:00,68.0,66.0,29.91,NW,320,0.0,4.0,93,0.00,,,0.00,,2013-06-17 12:43:00,
2013-06-17 08:53:00,69.0,65.0,29.91,North,352,0.0,4.0,88,0.00,,,0.00,,2013-06-17 12:53:00,
2013-06-17 09:01:00,70.0,65.0,29.91,NNW,340,0.0,4.0,84,0.00,,,0.00,,2013-06-17 13:01:00,
2013-06-17 09:12:00,71.0,64.0,29.91,NNW,329,0.0,7.0,78,0.00,,,0.00,,2013-06-17 13:12:00,
2013-06-17 09:22:00,72.0,64.0,29.90,NNW,329,1.0,4.0,77,0.00,,,0.00,,2013-06-17 13:22:00,
2013-06-17 09:32:00,73.0,65.0,29.91,NNW,333,0.0,4.0,77,0.00,,,0.00,,2013-06-17 13:32:00,
2013-06-17 09:43:00,73.0,64.0,29.91,NNW,333,0.0,2.0,74,0.00,,,0.00,,2013-06-17 13:43:00,
2013-06-17 09:52:00,74.0,65.0,29.91,NNW,333,0.0,2.0,73,0.00,,,0.00,,2013-06-17 13:52:00,
2013-06-17 10:02:00,74.0,64.0,29.91,NNW,333,0.0,2.0,71,0.00,,,0.00,,2013-06-17 14:02:00,
2013-06-17 10:12:00,75.0,65.0,29.91,NNW,333,1.0,2.0,70,0.00,,,0.00,,2013-06-17 14:12:00,
2013-06-17 10:22:00,75.0,64.0,29.91,NNW,332,0.0,4.0,68,0.00,,,0.00,,2013-06-17 14:22:00,
2013-06-17 10:34:00,76.0,65.0,29.91,NNW,332,0.0,1.0,69,0.00,,,0.00,,2013-06-17 14:34:00,
2013-06-17 10:43:00,77.0,66.0,29.91,NNW,332,0.0,4.0,68,0.00,,,0.00,,2013-06-17 14:43:00,
2013-06-17 10:53:00,77.0,64.0,29.91,NW,312,1.0,6.0,64,0.00,,,0.00,,2013-06-17 14:53:00,
2013-06-17 11:02:00,78.0,64.0,29.91,NW,312,1.0,6.0,63,0.00,,,0.00,,2013-06-17 15:02:00,
2013-06-17 11:12:00,79.0,65.0,29.91,NW,312,0.0,2.0,63,0.00,,,0.00,,2013-06-17 15:12:00,
2013-06-17 11:22:00,79.0,62.0,29.91,NW,308,1.0,6.0,57,0.00,,,0.00,,2013-06-17 15:22:00,
2013-06-17 11:33:00,80.0,59.0,29.91,West,277,2.0,6.0,48,0.00,,,0.00,,2013-06-17 15:33:00,
2013-06-17 11:43:00,81.0,59.0,29.91,West,268,1.0,2.0,48,0.00,,,0.00,,2013-06-17 15:43:00,
2013-06-17 12:02:00,82.0,55.0,29.91,WNW,288,2.0,6.0,39,0.00,,,0.00,,2013-06-17 16:02:00,
2013-06-17 12:12:00,82.0,57.0,29.91,South,186,1.0,6.0,43,0.00,,,0.00,,2013-06-17 16:12:00,
2013-06-17 12:22:00,82.0,58.0,29.90,SSW,208,0.0,4.0,44,0.00,,,0.00,,2013-06-17 16:22:00,
2013-06-17 12:33:00,83.0,54.0,29.90,WNW,294,2.0,8.0,37,0.00,,,0.00,,2013-06-17 16:33:00,
2013-06-17 12:43:00,84.0,53.0,29.90,NW,319,1.0,6.0,35,0.00,,,0.00,,2013-06-17 16:43:00,
2013-06-17 12:53:00,85.0,53.0,29.89,NW,316,0.0,6.0,34,0.00,,,0.00,,2013-06-17 16:53:00,
2013-06-17 13:02:00,85.0,56.0,29.89,NNE,18,2.0,6.0,37,0.00,,,0.00,,2013-06-17 17:02:00,
2013-06-17 13:12:00,86.0,55.0,29.89,North,360,2.0,6.0,35,0.00,,,0.00,,2013-06-17 17:12:00,
2013-06-17 13:22:00,86.0,55.0,29.89,WNW,301,1.0,4.0,35,0.00,,,0.00,,2013-06-17 17:22:00,
2013-06-17 13:33:00,86.0,51.0,29.89,NW,313,0.0,6.0,30,0.00,,,0.00,,2013-06-17 17:33:00,
2013-06-17 13:43:00,86.0,54.0,29.89,North,360,2.0,6.0,33,0.00,,,0.00,,2013-06-17 17:43:00,
2013-06-17 13:52:00,86.0,54.0,29.89,NW,323,1.0,6.0,33,0.00,,,0.00,,2013-06-17 17:52:00,
2013-06-17 14:02:00,86.0,52.0,29.89,WSW,248,0.0,7.0,31,0.00,,,0.00,,2013-06-17 18:02:00,
2013-06-17 14:12:00,86.0,50.0,29.89,WNW,298,2.0,8.0,29,0.00,,,0.00,,2013-06-17 18:12:00,
2013-06-17 14:23:00,86.0,54.0,29.89,NW,306,1.0,9.0,33,0.00,,,0.00,,2013-06-17 18:23:00,
2013-06-17 14:33:00,86.0,52.0,29.89,NNW,336,1.0,6.0,31,0.00,,,0.00,,2013-06-17 18:33:00,
2013-06-17 14:43:00,86.0,51.0,29.89,NNW,328,1.0,8.0,30,0.00,,,0.00,,2013-06-17 18:43:00,
2013-06-17 14:53:00,86.0,49.0,29.89,NW,313,3.0,8.0,28,0.00,,,0.00,,2013-06-17 18:53:00,
2013-06-17 15:02:00,86.0,52.0,29.89,SW,219,2.0,7.0,31,0.00,,,0.00,,2013-06-17 19:02:00,
2013-06-17 15:11:00,86.0,52.0,29.89,WSW,253,2.0,8.0,31,0.00,,,0.00,,2013-06-17 19:11:00,
2013-06-17 15:22:00,87.0,53.0,29.89,West,263,3.0,7.0,31,0.00,,,0.00,,2013-06-17 19:22:00,
2013-06-17 15:33:00,87.0,53.0,29.88,NW,315,1.0,8.0,31,0.00,,,0.00,,2013-06-17 19:33:00,
2013-06-17 15:43:00,87.0,53.0,29.88,North,359,0.0,7.0,31,0.00,,,0.00,,2013-06-17 19:43:00,
2013-06-17 15:53:00,87.0,52.0,29.88,WNW,296,0.0,7.0,30,0.00,,,0.00,,2013-06-17 19:53:00,
2013-06-17 16:02:00,87.0,52.0,29.88,North,6,2.0,6.0,30,0.00,,,0.00,,2013-06-17 20:02:00,
2013-06-17 16:11:00,87.0,54.0,29.88,WNW,291,0.0,8.0,33,0.00,,,0.00,,2013-06-17 20:11:00,
2013-06-17 16:22:00,87.0,52.0,29.88,NW,308,3.0,7.0,30,0.00,,,0.00,,2013-06-17 20:22:00,
2013-06-17 16:34:00,87.0,53.0,29.88,North,360,1.0,7.0,31,0.00,,,0.00,,2013-06-17 20:34:00,
2013-06-17 16:43:00,87.0,51.0,29.87,NW,318,2.0,6.0,29,0.00,,,0.00,,2013-06-17 20:43:00,
2013-06-17 16:52:00,87.0,50.0,29.86,West,271,4.0,9.0,28,0.00,,,0.00,,2013-06-17 20:52:00,
2013-06-17 17:01:00,87.0,52.0,29.86,WSW,247,0.0,7.0,30,0.00,,,0.00,,2013-06-17 21:01:00,
2013-06-17 17:12:00,87.0,56.0,29.85,WSW,244,1.0,7.0,35,0.00,,,0.00,,2013-06-17 21:12:00,
2013-06-17 17:22:00,87.0,56.0,29.85,NNW,337,1.0,4.0,35,0.00,,,0.00,,2013-06-17 21:22:00,
2013-06-17 17:33:00,86.0,58.0,29.85,WNW,287,1.0,7.0,39,0.00,,,0.00,,2013-06-17 21:33:00,
2013-06-17 17:43:00,86.0,57.0,29.84,WSW,256,2.0,7.0,38,0.00,,,0.00,,2013-06-17 21:43:00,
2013-06-17 17:52:00,86.0,57.0,29.84,WSW,256,2.0,7.0,38,0.00,,,0.00,,2013-06-17 21:52:00,
2013-06-17 18:01:00,85.0,61.0,29.84,South,179,1.0,7.0,44,0.00,,,0.00,,2013-06-17 22:01:00,
2013-06-17 18:11:00,85.0,55.0,29.84,West,270,1.0,7.0,36,0.00,,,0.00,,2013-06-17 22:11:00,
2013-06-17 18:22:00,85.0,56.0,29.84,West,260,1.0,10.0,37,0.00,,,0.00,,2013-06-17 22:22:00,
2013-06-17 18:34:00,85.0,55.0,29.84,NW,304,0.0,6.0,36,0.00,,,0.00,,2013-06-17 22:34:00,
2013-06-17 18:43:00,85.0,58.0,29.84,NW,308,0.0,4.0,40,0.00,,,0.00,,2013-06-17 22:43:00,
2013-06-17 18:53:00,84.0,56.0,29.84,WSW,247,0.0,6.0,39,0.00,,,0.00,,2013-06-17 22:53:00,
2013-06-17 19:02:00,84.0,55.0,29.84,NW,306,2.0,6.0,37,0.00,,,0.00,,2013-06-17 23:02:00,
2013-06-17 19:11:00,84.0,59.0,29.84,WNW,294,0.0,7.0,43,0.00,,,0.00,,2013-06-17 23:11:00,
2013-06-17 19:22:00,84.0,61.0,29.84,WNW,294,0.0,2.0,46,0.00,,,0.00,,2013-06-17 23:22:00,
2013-06-17 19:32:00,83.0,59.0,29.83,WNW,294,0.0,4.0,44,0.00,,,0.00,,2013-06-17 23:32:00,
2013-06-17 19:42:00,82.0,60.0,29.83,WNW,294,0.0,1.0,47,0.00,,,0.00,,2013-06-17 23:42:00,
2013-06-17 19:53:00,82.0,60.0,29.83,WNW,294,0.0,0.0,47,0.00,,,0.00,,2013-06-17 23:53:00,
2013-06-17 20:01:00,81.0,60.0,29.84,WNW,294,0.0,2.0,49,0.00,,,0.00,,2013-06-18 00:01:00,
2013-06-17 20:12:00,80.0,59.0,29.84,WNW,294,0.0,0.0,49,0.00,,,0.00,,2013-06-18 00:12:00,
2013-06-17 20:22:00,80.0,59.0,29.84,WNW,294,0.0,0.0,49,0.00,,,0.00,,2013-06-18 00:22:00,
2013-06-17 20:33:00,78.0,65.0,29.84,WNW,294,0.0,0.0,64,0.00,,,0.00,,2013-06-18 00:33:00,
2013-06-17 20:43:00,76.0,64.0,29.84,WNW,295,1.0,2.0,67,0.00,,,0.00,,2013-06-18 00:43:00,
2013-06-17 21:11:00,68.0,61.0,29.86,ESE,121,1.0,6.0,79,0.00,,,0.00,,2013-06-18 01:11:00,
2013-06-17 21:23:00,67.0,62.0,29.86,SE,136,1.0,4.0,83,0.00,,,0.00,,2013-06-18 01:23:00,
2013-06-17 21:34:00,67.0,62.0,29.85,SE,136,0.0,2.0,83,0.00,,,0.00,,2013-06-18 01:34:00,
2013-06-17 21:53:00,67.0,62.0,29.85,SSE,150,0.0,0.0,83,0.00,,,0.00,,2013-06-18 01:53:00,
2013-06-17 22:02:00,67.0,62.0,29.85,SSE,150,0.0,0.0,84,0.00,,,0.00,,2013-06-18 02:02:00,
2013-06-17 22:11:00,67.0,62.0,29.85,SSE,148,0.0,2.0,84,0.00,,,0.00,,2013-06-18 02:11:00,
2013-06-17 22:22:00,67.0,61.0,29.86,NNE,24,0.0,6.0,82,0.00,,,0.00,,2013-06-18 02:22:00,
2013-06-17 22:34:00,67.0,61.0,29.86,NNE,24,0.0,0.0,81,0.00,,,0.00,,2013-06-18 02:34:00,
2013-06-17 22:43:00,67.0,61.0,29.86,NNE,24,0.0,0.0,82,0.00,,,0.00,,2013-06-18 02:43:00,
2013-06-17 22:53:00,67.0,62.0,29.86,NNE,24,0.0,0.0,83,0.00,,,0.00,,2013-06-18 02:53:00,
2013-06-17 23:02:00,67.0,62.0,29.87,NNE,24,0.0,0.0,83,0.00,,,0.00,,2013-06-18 03:02:00,
2013-06-17 23:12:00,67.0,62.0,29.87,NNE,14,2.0,7.0,84,0.00,,,0.00,,2013-06-18 03:12:00,
2013-06-17 23:23:00,68.0,61.0,29.91,North,360,3.0,11.0,78,0.00,,,0.00,,2013-06-18 03:23:00,
2013-06-17 23:34:00,67.0,60.0,29.91,NNE,18,1.0,14.0,79,0.00,,,0.00,,2013-06-18 03:34:00,
2013-06-17 23:43:00,66.0,60.0,29.90,NW,319,1.0,9.0,81,0.00,,,0.00,,2013-06-18 03:43:00,
2013-06-17 23:53:00,66.0,61.0,29.89,NNW,330,0.0,6.0,84,0.00,,,0.00,,2013-06-18 03:53:00,